Terminal Aerodrome Forecast
Issued by NWS Charleston, WV

Home | Current Version | Previous Version | Text Only | Print | Product List | Glossary On
Versions: 1 2 3 4 5 6 7 8 9 10 11 12 13 14 15 16 17 18 19 20 21 22 23 24 25 26
314
FTUS41 KRLX 241720
TAFEKN
TAF
KEKN 241720Z 2418/2518 31009KT P6SM FEW045
     FM250100 00000KT P6SM SKC
     FM250600 00000KT 6SM HZ SKC
     FM250800 00000KT 3SM HZ SKC
     FM251000 00000KT 1SM BR SCT001
     FM251300 VRB04KT P6SM SKC
     FM251600 25005KT P6SM SCT040=

USA.gov is the U.S. government's official web portal to all federal, state and local government web resources and services.